Terminal Aerodrome Forecast
Issued by NWS Pocatello, ID

Home | Current Version | Previous Version | Text Only | Print | Product List | Glossary On
Versions: 1 2 3 4 5 6 7 8 9 10 11 12
000
FTUS45 KPIH 030520
TAFIDA
TAF
KIDA 030520Z 0306/0406 VRB06KT P6SM BKN150
     FM031500 22010KT P6SM SCT080 BKN150
     FM032000 22012G22KT P6SM VCTS SCT080CB BKN150
     FM040300 21008KT P6SM VCSH SCT060 BKN100=

USA.gov is the U.S. government's official web portal to all federal, state and local government web resources and services.